createdAt,value
2023-01-04T00:00:07.543Z,7.73
2023-01-04T00:07:09.413Z,7.74
2023-01-04T00:14:11.139Z,7.76
2023-01-04T00:21:28.768Z,7.65
2023-01-04T00:28:30.566Z,7.77
2023-01-04T00:35:45.828Z,7.68
2023-01-04T00:42:48.786Z,7.78
2023-01-04T00:49:50.447Z,7.71
2023-01-04T00:56:52.092Z,7.62
2023-01-04T01:03:54.880Z,7.54
2023-01-04T01:11:00.253Z,7.65
2023-01-04T01:18:01.965Z,7.60
2023-01-04T01:25:03.885Z,7.62
2023-01-04T01:32:05.700Z,7.68
2023-01-04T01:39:07.318Z,7.62
2023-01-04T01:46:09.030Z,7.78
2023-01-04T01:53:10.673Z,7.64
2023-01-04T02:00:13.487Z,7.64
2023-01-04T02:07:16.435Z,7.73
2023-01-04T02:14:27.380Z,7.62
2023-01-04T02:21:51.643Z,7.57
2023-01-04T02:29:41.346Z,7.54
2023-01-04T02:36:48.867Z,7.50
2023-01-04T02:44:20.177Z,7.42
2023-01-04T02:51:32.988Z,7.21
2023-01-04T02:58:40.761Z,7.40
2023-01-04T03:06:13.605Z,7.52
2023-01-04T03:13:23.345Z,7.25
2023-01-04T03:20:27.603Z,7.46
2023-01-04T03:27:47.718Z,7.44
2023-01-04T03:35:07.824Z,7.38
2023-01-04T03:42:40.349Z,7.36
2023-01-04T03:49:57.299Z,7.41
2023-01-04T03:56:58.944Z,7.17
2023-01-04T04:04:19.214Z,7.14
2023-01-04T04:11:32.939Z,7.17
2023-01-04T04:18:34.544Z,7.10
2023-01-04T04:25:36.204Z,7.25
2023-01-04T04:32:37.892Z,7.11
2023-01-04T04:39:39.485Z,7.12
2023-01-04T04:46:41.461Z,7.08
2023-01-04T04:53:43.267Z,7.22
2023-01-04T05:00:45.064Z,7.13
2023-01-04T05:07:46.767Z,7.18
2023-01-04T05:14:48.568Z,7.35
2023-01-04T05:21:50.228Z,7.33
2023-01-04T05:28:54.111Z,7.33
2023-01-04T05:35:57.065Z,7.50
2023-01-04T05:42:58.772Z,7.52
2023-01-04T05:50:00.413Z,7.50
2023-01-04T05:57:02.106Z,7.56
2023-01-04T06:04:03.898Z,7.50
2023-01-04T06:11:05.673Z,7.73
2023-01-04T06:18:12.980Z,7.79
2023-01-04T06:25:15.145Z,7.76
2023-01-04T06:32:16.845Z,7.96
2023-01-04T06:39:18.721Z,8.07
2023-01-04T06:46:20.570Z,8.08
2023-01-04T06:53:22.279Z,8.19
2023-01-04T07:00:24.644Z,8.26
2023-01-04T07:07:26.240Z,8.52
2023-01-04T07:14:27.964Z,8.72
2023-01-04T07:21:29.959Z,8.83
2023-01-04T07:28:50.269Z,8.83
2023-01-04T07:35:52.069Z,9.04
2023-01-04T07:42:55.622Z,8.88
2023-01-04T07:49:57.380Z,8.80
2023-01-04T07:56:59.055Z,9.00
2023-01-04T08:04:00.998Z,8.91
2023-01-04T08:11:14.400Z,8.77
2023-01-04T08:18:18.968Z,8.97
2023-01-04T08:25:22.225Z,8.89
2023-01-04T08:32:23.897Z,9.00
2023-01-04T08:39:25.639Z,9.00
2023-01-04T08:46:27.361Z,8.94
2023-01-04T08:53:29.489Z,9.01
2023-01-04T09:00:31.150Z,9.01
2023-01-04T09:07:32.900Z,9.16
2023-01-04T09:14:34.626Z,9.29
2023-01-04T09:21:36.396Z,9.45
2023-01-04T09:28:38.521Z,9.18
2023-01-04T09:35:40.260Z,9.59
2023-01-04T09:42:41.918Z,9.50
2023-01-04T09:49:52.665Z,9.35
2023-01-04T09:56:58.192Z,9.47
2023-01-04T10:04:26.986Z,9.80
2023-01-04T10:11:40.833Z,9.57
2023-01-04T10:20:16.290Z,9.82
2023-01-04T10:26:26.317Z,9.58
2023-01-04T10:33:30.080Z,9.65
2023-01-04T10:40:33.867Z,9.88
2023-01-04T10:47:55.618Z,9.75
2023-01-04T10:55:03.522Z,9.91
2023-01-04T11:02:05.354Z,9.71
2023-01-04T11:09:17.265Z,9.62
2023-01-04T11:16:22.873Z,9.72
2023-01-04T11:23:25.552Z,9.83
2023-01-04T11:30:35.064Z,9.81
2023-01-04T11:37:38.638Z,10.13
2023-01-04T11:44:41.910Z,10.25
2023-01-04T11:51:43.486Z,10.35
2023-01-04T11:59:02.614Z,10.27
2023-01-04T12:06:37.966Z,10.42
2023-01-04T12:13:39.650Z,10.48
2023-01-04T12:20:41.226Z,10.39
2023-01-04T12:27:50.279Z,10.73
2023-01-04T12:34:51.915Z,10.57
2023-01-04T12:42:03.572Z,10.67
2023-01-04T12:49:30.833Z,10.88
2023-01-04T12:57:10.433Z,10.59
2023-01-04T13:04:47.278Z,10.94
2023-01-04T13:12:00.164Z,10.74
2023-01-04T13:19:02.737Z,10.61
2023-01-04T13:26:26.543Z,10.69
2023-01-04T13:33:28.988Z,10.59
2023-01-04T13:40:35.536Z,10.76
2023-01-04T13:47:41.762Z,10.65
2023-01-04T13:54:43.373Z,10.90
2023-01-04T14:01:45.841Z,11.01
2023-01-04T14:08:58.397Z,10.95
2023-01-04T14:16:11.139Z,10.84
2023-01-04T14:23:28.824Z,11.02
2023-01-04T14:30:30.481Z,11.00
2023-01-04T14:37:35.066Z,10.94
2023-01-04T14:44:41.151Z,11.13
2023-01-04T14:51:51.394Z,11.24
2023-01-04T14:58:53.045Z,11.34
2023-01-04T15:05:54.658Z,11.15
2023-01-04T15:12:57.655Z,11.65
2023-01-04T15:19:59.299Z,11.42
2023-01-04T15:27:00.980Z,11.38
2023-01-04T15:34:02.625Z,11.50
2023-01-04T15:41:07.962Z,11.52
2023-01-04T15:48:10.210Z,11.70
2023-01-04T15:55:12.824Z,11.61
2023-01-04T16:02:14.555Z,11.74
2023-01-04T16:09:16.301Z,11.63
2023-01-04T16:16:18.816Z,11.83
2023-01-04T16:23:20.444Z,11.87
2023-01-04T16:30:29.387Z,11.65
2023-01-04T16:37:31.605Z,11.77
2023-01-04T16:44:33.357Z,11.81
2023-01-04T16:51:35.623Z,11.61
2023-01-04T16:58:37.436Z,11.67
2023-01-04T17:05:42.040Z,11.94
2023-01-04T17:12:48.487Z,12.01
2023-01-04T17:19:50.515Z,12.08
2023-01-04T17:26:52.233Z,12.13
2023-01-04T17:33:54.012Z,11.95
2023-01-04T17:40:55.741Z,12.39
2023-01-04T17:47:57.651Z,12.30
2023-01-04T17:54:59.390Z,12.30
2023-01-04T18:02:01.073Z,12.32
2023-01-04T18:09:04.360Z,12.51
2023-01-04T18:16:24.038Z,12.55
2023-01-04T18:23:26.334Z,12.70
2023-01-04T18:30:27.983Z,12.63
2023-01-04T18:37:29.704Z,12.70
2023-01-04T18:44:33.421Z,12.76
2023-01-04T18:51:36.403Z,12.77
2023-01-04T18:58:38.198Z,12.94
2023-01-04T19:05:40.954Z,12.82
2023-01-04T19:12:43.174Z,12.94
2023-01-04T19:19:45.928Z,12.73
2023-01-04T19:26:47.550Z,12.97
2023-01-04T19:33:49.168Z,13.08
2023-01-04T19:40:57.304Z,12.97
2023-01-04T19:47:59.412Z,13.16
2023-01-04T19:55:01.168Z,12.78
2023-01-04T20:02:03.028Z,12.80
2023-01-04T20:09:04.925Z,12.87
2023-01-04T20:16:07.642Z,12.91
2023-01-04T20:23:09.804Z,12.80
2023-01-04T20:30:11.680Z,12.73
2023-01-04T20:37:13.279Z,12.93
2023-01-04T20:44:14.934Z,12.86
2023-01-04T20:51:19.049Z,12.88
2023-01-04T20:58:20.844Z,12.91
2023-01-04T21:05:22.590Z,13.09
2023-01-04T21:12:24.253Z,13.18
2023-01-04T21:19:25.803Z,13.26
2023-01-04T21:26:27.561Z,13.38
2023-01-04T21:33:29.725Z,13.34
2023-01-04T21:40:32.181Z,13.17
2023-01-04T21:47:34.007Z,13.29
2023-01-04T21:54:35.592Z,13.32
2023-01-04T22:01:37.784Z,13.09
2023-01-04T22:08:40.224Z,13.26
2023-01-04T22:15:41.823Z,12.96
2023-01-04T22:22:43.451Z,13.16
2023-01-04T22:29:45.113Z,13.05
2023-01-04T22:36:46.910Z,13.07
2023-01-04T22:43:48.690Z,12.63
2023-01-04T22:50:50.345Z,12.67
2023-01-04T22:57:51.964Z,12.52
2023-01-04T23:04:53.561Z,12.61
2023-01-04T23:11:56.291Z,12.62
2023-01-04T23:18:57.952Z,12.64
2023-01-04T23:26:24.543Z,12.80
2023-01-04T23:33:29.645Z,12.72
2023-01-04T23:40:34.499Z,12.67
2023-01-04T23:47:36.097Z,12.70
2023-01-04T23:54:37.729Z,12.71
